createdAt,value
2019-04-26T00:00:44.231Z,9.89
2019-04-26T00:01:44.267Z,9.99
2019-04-26T00:02:44.205Z,9.93
2019-04-26T00:03:44.193Z,9.97
2019-04-26T00:04:44.180Z,9.96
2019-04-26T00:05:44.170Z,10.00
2019-04-26T00:06:44.159Z,9.97
2019-04-26T00:07:44.199Z,9.93
2019-04-26T00:08:44.138Z,10.04
2019-04-26T00:09:44.130Z,10.01
2019-04-26T00:10:44.123Z,9.91
2019-04-26T00:11:44.106Z,9.88
2019-04-26T00:12:44.094Z,10.04
2019-04-26T00:13:44.140Z,10.04
2019-04-26T00:14:44.076Z,10.04
2019-04-26T00:15:44.065Z,10.14
2019-04-26T00:16:44.055Z,10.06
2019-04-26T00:17:44.046Z,10.03
2019-04-26T00:18:44.200Z,10.00
2019-04-26T00:19:44.022Z,9.91
2019-04-26T00:20:44.012Z,9.65
2019-04-26T00:21:44.001Z,9.63
2019-04-26T00:22:43.990Z,9.70
2019-04-26T00:23:44.031Z,9.59
2019-04-26T00:24:43.969Z,9.63
2019-04-26T00:25:43.958Z,9.45
2019-04-26T00:26:43.949Z,9.49
2019-04-26T00:27:43.941Z,9.47
2019-04-26T00:28:44.035Z,9.39
2019-04-26T00:29:43.920Z,9.39
2019-04-26T00:30:43.905Z,9.37
2019-04-26T00:31:43.896Z,9.41
2019-04-26T00:32:43.881Z,9.37
2019-04-26T00:33:43.874Z,9.23
2019-04-26T00:34:44.012Z,9.26
2019-04-26T00:35:47.780Z,9.23
2019-04-26T00:36:43.847Z,9.15
2019-04-26T00:37:43.832Z,9.17
2019-04-26T00:38:43.827Z,9.11
2019-04-26T00:39:43.807Z,9.11
2019-04-26T00:40:43.906Z,9.19
2019-04-26T00:41:43.785Z,9.15
2019-04-26T00:42:43.781Z,9.01
2019-04-26T00:43:43.764Z,8.97
2019-04-26T00:44:43.795Z,8.94
2019-04-26T00:45:43.743Z,8.90
2019-04-26T00:46:43.783Z,8.96
2019-04-26T00:47:43.725Z,8.97
2019-04-26T00:48:43.714Z,8.90
2019-04-26T00:49:44.227Z,8.97
2019-04-26T00:50:43.690Z,8.97
2019-04-26T00:51:43.682Z,8.97
2019-04-26T00:52:43.877Z,9.11
2019-04-26T00:53:43.663Z,9.06
2019-04-26T00:54:43.646Z,8.99
2019-04-26T00:55:43.641Z,9.04
2019-04-26T00:56:43.625Z,9.06
2019-04-26T00:57:43.614Z,8.99
2019-04-26T00:58:43.707Z,9.04
2019-04-26T00:59:43.595Z,9.15
2019-04-26T01:00:43.590Z,9.06
2019-04-26T01:01:43.573Z,9.24
2019-04-26T01:02:43.560Z,9.24
2019-04-26T01:03:43.554Z,9.29
2019-04-26T01:04:43.591Z,9.22
2019-04-26T01:05:43.530Z,9.17
2019-04-26T01:06:43.522Z,9.15
2019-04-26T01:07:43.507Z,9.14
2019-04-26T01:08:43.501Z,9.08
2019-04-26T01:09:43.487Z,9.19
2019-04-26T01:10:43.626Z,9.17
2019-04-26T01:11:43.466Z,9.11
2019-04-26T01:12:43.456Z,9.05
2019-04-26T01:13:43.447Z,9.23
2019-04-26T01:14:43.434Z,9.23
2019-04-26T01:15:43.423Z,9.15
2019-04-26T01:16:43.461Z,9.24
2019-04-26T01:17:43.399Z,9.23
2019-04-26T01:18:43.391Z,9.27
2019-04-26T01:19:43.379Z,9.29
2019-04-26T01:20:43.370Z,9.24
2019-04-26T01:21:43.362Z,9.24
2019-04-26T01:22:43.400Z,9.37
2019-04-26T01:23:43.336Z,9.38
2019-04-26T01:24:43.325Z,9.47
2019-04-26T01:25:43.319Z,9.44
2019-04-26T01:26:43.307Z,9.47
2019-04-26T01:27:43.295Z,9.49
2019-04-26T01:28:43.437Z,9.45
2019-04-26T01:29:43.275Z,9.48
2019-04-26T01:30:43.265Z,9.47
2019-04-26T01:31:43.254Z,9.49
2019-04-26T01:32:43.249Z,9.45
2019-04-26T01:33:43.231Z,9.51
2019-04-26T01:34:43.321Z,9.60
2019-04-26T01:35:43.210Z,9.69
2019-04-26T01:36:43.202Z,9.69
2019-04-26T01:37:43.191Z,9.85
2019-04-26T01:38:43.195Z,10.12
2019-04-26T01:39:43.175Z,10.25
2019-04-26T01:40:43.260Z,10.91
2019-04-26T01:41:43.147Z,12.01
2019-04-26T01:42:43.137Z,12.71
2019-04-26T01:43:43.125Z,13.21
2019-04-26T01:44:43.114Z,13.82
2019-04-26T01:45:43.152Z,14.29
2019-04-26T01:46:43.092Z,14.62
2019-04-26T01:47:43.084Z,14.86
2019-04-26T01:48:43.070Z,15.05
2019-04-26T01:49:43.058Z,15.40
2019-04-26T01:50:43.049Z,15.37
2019-04-26T01:51:43.139Z,15.57
2019-04-26T01:52:43.028Z,15.56
2019-04-26T01:53:43.019Z,15.01
2019-04-26T01:54:43.006Z,14.52
2019-04-26T01:55:43.000Z,13.90
2019-04-26T01:56:42.989Z,13.35
2019-04-26T01:57:43.128Z,12.93
2019-04-26T01:58:42.965Z,12.59
2019-04-26T01:59:42.963Z,12.74
2019-04-26T02:00:42.943Z,12.58
2019-04-26T02:01:42.938Z,12.51
2019-04-26T02:02:42.924Z,12.41
2019-04-26T02:03:43.013Z,12.45
2019-04-26T02:04:42.907Z,12.97
2019-04-26T02:05:42.890Z,13.73
2019-04-26T02:06:42.881Z,14.10
2019-04-26T02:07:42.872Z,14.79
2019-04-26T02:08:42.858Z,15.10
2019-04-26T02:09:42.903Z,15.51
2019-04-26T02:10:42.841Z,15.81
2019-04-26T02:11:42.826Z,15.96
2019-04-26T02:12:42.819Z,16.03
2019-04-26T02:13:42.809Z,15.99
2019-04-26T02:14:42.797Z,15.74
2019-04-26T02:15:42.934Z,15.37
2019-04-26T02:16:42.772Z,15.02
2019-04-26T02:17:42.764Z,14.62
2019-04-26T02:18:42.749Z,14.13
2019-04-26T02:19:42.745Z,13.90
2019-04-26T02:20:42.732Z,13.75
2019-04-26T02:21:42.775Z,13.61
2019-04-26T02:22:42.708Z,13.45
2019-04-26T02:23:42.700Z,13.43
2019-04-26T02:24:42.690Z,13.39
2019-04-26T02:25:42.673Z,13.37
2019-04-26T02:26:42.767Z,13.33
2019-04-26T02:27:42.654Z,13.25
2019-04-26T02:28:42.645Z,13.24
2019-04-26T02:29:42.630Z,13.22
2019-04-26T02:30:42.626Z,13.35
2019-04-26T02:31:42.620Z,13.36
2019-04-26T02:32:42.651Z,13.35
2019-04-26T02:33:42.593Z,13.42
2019-04-26T02:34:42.583Z,13.45
2019-04-26T02:35:42.569Z,13.51
2019-04-26T02:36:57.182Z,13.53
2019-04-26T02:37:43.694Z,13.72
2019-04-26T02:38:42.537Z,13.94
2019-04-26T02:39:42.541Z,14.12
2019-04-26T02:40:42.525Z,14.21
2019-04-26T02:41:42.513Z,14.53
2019-04-26T02:42:42.499Z,14.50
2019-04-26T02:44:42.624Z,14.57
2019-04-26T02:45:42.464Z,14.61
2019-04-26T02:46:42.451Z,14.74
2019-04-26T02:47:42.449Z,14.85
2019-04-26T02:48:42.435Z,14.80
2019-04-26T02:49:42.424Z,14.79
2019-04-26T02:50:42.509Z,14.65
2019-04-26T02:51:42.403Z,14.67
2019-04-26T02:52:42.413Z,14.60
2019-04-26T02:53:42.381Z,14.47
2019-04-26T02:54:42.374Z,14.50
2019-04-26T02:55:42.803Z,14.46
2019-04-26T02:56:42.398Z,14.49
2019-04-26T02:57:42.336Z,14.72
2019-04-26T02:58:42.326Z,15.40
2019-04-26T02:59:42.320Z,16.06
2019-04-26T03:00:42.309Z,16.52
2019-04-26T03:01:42.294Z,16.70
2019-04-26T03:02:42.433Z,16.66
2019-04-26T03:03:42.279Z,16.49
2019-04-26T03:04:42.268Z,16.51
2019-04-26T03:05:42.254Z,16.33
2019-04-26T03:06:42.832Z,16.22
2019-04-26T03:07:42.825Z,16.33
2019-04-26T03:08:42.763Z,16.37
2019-04-26T03:09:43.211Z,16.18
2019-04-26T03:10:43.498Z,16.07
2019-04-26T03:11:43.372Z,15.99
2019-04-26T03:12:43.169Z,15.99
2019-04-26T03:13:43.580Z,15.86
2019-04-26T03:14:42.208Z,15.84
2019-04-26T03:15:42.682Z,15.72
2019-04-26T03:16:42.938Z,15.74
2019-04-26T03:17:43.045Z,15.75
2019-04-26T03:18:43.059Z,15.72
2019-04-26T03:19:43.103Z,15.75
2019-04-26T03:20:42.343Z,15.75
2019-04-26T03:21:43.339Z,15.67
2019-04-26T03:22:42.673Z,15.76
2019-04-26T03:23:56.969Z,15.99
2019-04-26T03:25:06.862Z,16.04
2019-04-26T03:26:06.906Z,15.96
2019-04-26T03:27:06.845Z,15.97
2019-04-26T03:28:06.834Z,16.09
2019-04-26T03:29:06.819Z,16.12
2019-04-26T03:30:19.791Z,16.70
2019-04-26T03:31:36.294Z,16.66
2019-04-26T03:32:39.130Z,16.69
2019-04-26T03:33:56.604Z,16.93
2019-04-26T03:34:56.585Z,17.13
2019-04-26T03:35:58.267Z,17.50
2019-04-26T03:36:56.631Z,17.62
2019-04-26T03:37:56.462Z,17.70
2019-04-26T03:38:56.452Z,17.87
2019-04-26T03:39:56.442Z,17.75
2019-04-26T03:40:56.438Z,17.77
2019-04-26T03:41:56.472Z,17.75
2019-04-26T03:42:56.408Z,17.62
2019-04-26T03:43:56.457Z,17.70
2019-04-26T03:44:56.386Z,17.59
2019-04-26T03:45:56.386Z,17.38
2019-04-26T03:46:56.412Z,17.36
2019-04-26T03:47:56.357Z,17.29
2019-04-26T03:48:56.344Z,17.26
2019-04-26T03:49:56.333Z,17.13
2019-04-26T03:50:56.322Z,16.98
2019-04-26T03:51:56.311Z,16.98
2019-04-26T03:52:56.450Z,16.90
2019-04-26T03:53:56.310Z,16.90
2019-04-26T03:54:56.292Z,16.95
2019-04-26T03:55:56.272Z,16.70
2019-04-26T03:56:56.262Z,16.48
2019-04-26T03:57:56.246Z,16.51
2019-04-26T03:58:56.284Z,16.51
2019-04-26T03:59:56.223Z,16.58
2019-04-26T04:00:56.213Z,16.88
2019-04-26T04:01:56.205Z,17.00
2019-04-26T04:02:56.201Z,17.15
2019-04-26T04:03:56.192Z,17.13
2019-04-26T04:04:56.274Z,17.23
2019-04-26T04:05:56.160Z,17.25
2019-04-26T04:07:03.627Z,17.26
2019-04-26T04:08:20.951Z,17.17
2019-04-26T04:09:20.950Z,16.95
2019-04-26T04:10:21.079Z,16.92
2019-04-26T04:11:20.995Z,16.88
2019-04-26T04:12:21.001Z,16.80
2019-04-26T04:13:20.910Z,16.66
2019-04-26T04:14:21.059Z,16.58
2019-04-26T04:15:20.896Z,16.57
2019-04-26T04:16:20.928Z,16.85
2019-04-26T04:17:20.863Z,16.72
2019-04-26T04:18:20.850Z,16.69
2019-04-26T04:19:20.833Z,16.55
2019-04-26T04:20:20.822Z,16.40
2019-04-26T04:21:20.864Z,16.24
2019-04-26T04:22:20.807Z,16.12
2019-04-26T04:23:20.790Z,16.24
2019-04-26T04:24:20.781Z,16.22
2019-04-26T04:25:20.771Z,16.16
2019-04-26T04:26:20.910Z,16.16
2019-04-26T04:27:20.754Z,16.24
2019-04-26T04:28:20.739Z,16.18
2019-04-26T04:29:20.726Z,16.07
2019-04-26T04:30:20.727Z,15.97
2019-04-26T04:31:20.707Z,15.94
2019-04-26T04:32:20.756Z,16.09
2019-04-26T04:33:20.689Z,16.11
2019-04-26T04:34:20.695Z,16.04
2019-04-26T04:35:20.668Z,15.96
2019-04-26T04:36:20.652Z,16.00
2019-04-26T04:37:20.644Z,15.99
2019-04-26T04:38:20.682Z,15.92
2019-04-26T04:39:20.619Z,15.92
2019-04-26T04:40:20.610Z,15.94
2019-04-26T04:41:20.599Z,15.97
2019-04-26T04:42:20.610Z,15.96
2019-04-26T04:43:20.694Z,16.47
2019-04-26T04:44:20.616Z,16.54
2019-04-26T04:45:20.603Z,16.54
2019-04-26T04:46:20.733Z,16.48
2019-04-26T04:47:25.598Z,16.52
2019-04-26T04:48:20.655Z,16.52
2019-04-26T04:49:20.525Z,16.54
2019-04-26T04:50:20.558Z,16.61
2019-04-26T04:51:20.492Z,16.76
2019-04-26T04:52:20.478Z,16.82
2019-04-26T04:53:20.472Z,16.87
2019-04-26T04:54:20.466Z,16.98
2019-04-26T04:55:20.452Z,16.93
2019-04-26T04:56:20.590Z,17.08
2019-04-26T04:57:20.433Z,17.10
2019-04-26T04:58:20.524Z,17.08
2019-04-26T04:59:20.406Z,17.07
2019-04-26T05:00:20.397Z,17.17
2019-04-26T05:01:20.390Z,17.23
2019-04-26T05:02:20.476Z,17.30
2019-04-26T05:03:20.365Z,17.36
2019-04-26T05:04:20.353Z,17.40
2019-04-26T05:05:20.344Z,17.38
2019-04-26T05:06:20.335Z,17.36
2019-04-26T05:07:20.325Z,17.29
2019-04-26T05:08:20.362Z,17.36
2019-04-26T05:09:20.300Z,17.48
2019-04-26T05:10:20.296Z,17.53
2019-04-26T05:11:20.292Z,17.73
2019-04-26T05:12:20.266Z,17.86
2019-04-26T05:13:20.287Z,17.93
2019-04-26T05:14:20.499Z,18.02
2019-04-26T05:15:20.235Z,18.03
2019-04-26T05:16:20.225Z,18.20
2019-04-26T05:17:20.224Z,18.33
2019-04-26T05:18:20.208Z,18.43
2019-04-26T05:19:20.195Z,18.49
2019-04-26T05:21:20.220Z,18.54
2019-04-26T05:22:20.169Z,18.57
2019-04-26T05:23:20.149Z,18.54
2019-04-26T05:24:20.144Z,18.61
2019-04-26T05:25:20.130Z,18.62
2019-04-26T05:26:20.126Z,18.46
2019-04-26T05:27:20.157Z,18.67
2019-04-26T05:28:20.100Z,18.74
2019-04-26T05:29:20.089Z,18.77
2019-04-26T05:30:20.082Z,18.70
2019-04-26T05:31:20.118Z,18.77
2019-04-26T05:32:20.084Z,18.73
2019-04-26T05:33:20.200Z,18.82
2019-04-26T05:34:20.037Z,18.97
2019-04-26T05:35:20.024Z,19.12
2019-04-26T05:36:20.019Z,19.05
2019-04-26T05:37:20.009Z,19.24
2019-04-26T05:38:19.993Z,19.22
2019-04-26T05:39:20.029Z,19.13
2019-04-26T05:40:19.973Z,19.10
2019-04-26T05:41:19.959Z,19.09
2019-04-26T05:42:19.951Z,19.01
2019-04-26T05:43:19.940Z,19.05
2019-04-26T05:44:20.033Z,18.86
2019-04-26T05:45:19.927Z,18.80
2019-04-26T05:46:19.917Z,18.84
2019-04-26T05:47:19.902Z,18.97
2019-04-26T05:48:19.895Z,19.04
2019-04-26T05:49:19.883Z,19.10
2019-04-26T05:50:20.121Z,19.16
2019-04-26T05:51:19.868Z,19.17
2019-04-26T05:52:19.849Z,19.12
2019-04-26T05:53:19.843Z,19.07
2019-04-26T05:54:19.834Z,18.92
2019-04-26T05:55:19.828Z,18.91
2019-04-26T05:56:19.859Z,18.95
2019-04-26T05:57:19.795Z,19.05
2019-04-26T05:58:19.792Z,18.97
2019-04-26T05:59:19.780Z,19.01
2019-04-26T06:00:19.768Z,18.98
2019-04-26T06:01:19.761Z,18.92
2019-04-26T06:02:19.849Z,18.95
2019-04-26T06:03:19.740Z,19.05
2019-04-26T06:04:19.727Z,19.19
2019-04-26T06:05:19.716Z,19.34
2019-04-26T06:06:19.713Z,19.37
2019-04-26T06:07:19.694Z,19.47
2019-04-26T06:08:30.697Z,19.60
2019-04-26T06:09:20.774Z,19.86
2019-04-26T06:10:19.666Z,19.98
2019-04-26T06:11:19.684Z,19.97
2019-04-26T06:12:19.697Z,20.10
2019-04-26T06:13:19.642Z,20.24
2019-04-26T06:14:19.677Z,20.27
2019-04-26T06:15:19.619Z,20.30
2019-04-26T06:16:19.613Z,20.21
2019-04-26T06:17:19.597Z,20.21
2019-04-26T06:18:19.582Z,20.06
2019-04-26T06:19:19.574Z,20.21
2019-04-26T06:20:22.997Z,20.24
2019-04-26T06:21:19.555Z,20.16
2019-04-26T06:22:19.543Z,20.20
2019-04-26T06:23:19.530Z,20.33
2019-04-26T06:24:19.523Z,20.43
2019-04-26T06:25:19.523Z,20.31
2019-04-26T06:26:19.655Z,20.08
2019-04-26T06:27:19.493Z,19.93
2019-04-26T06:28:19.480Z,19.56
2019-04-26T06:29:19.471Z,19.42
2019-04-26T06:30:19.458Z,19.41
2019-04-26T06:31:19.450Z,19.41
2019-04-26T06:32:19.544Z,19.39
2019-04-26T06:33:19.425Z,19.37
2019-04-26T06:34:19.416Z,19.45
2019-04-26T06:35:20.342Z,19.50
2019-04-26T06:36:19.395Z,19.42
2019-04-26T06:37:19.394Z,19.54
2019-04-26T06:38:19.423Z,19.54
2019-04-26T06:39:19.363Z,19.60
2019-04-26T06:40:19.354Z,19.56
2019-04-26T06:41:21.500Z,19.45
2019-04-26T06:42:19.333Z,19.39
2019-04-26T06:43:19.324Z,19.37
2019-04-26T06:44:19.461Z,19.35
2019-04-26T06:45:19.301Z,19.39
2019-04-26T06:46:19.292Z,19.38
2019-04-26T06:47:19.282Z,19.35
2019-04-26T06:48:19.277Z,19.31
2019-04-26T06:49:19.260Z,19.20
2019-04-26T06:50:19.349Z,19.30
2019-04-26T06:51:24.522Z,19.12
2019-04-26T06:52:19.230Z,18.98
2019-04-26T06:53:19.218Z,19.04
2019-04-26T06:54:19.211Z,19.05
2019-04-26T06:55:19.196Z,18.87
2019-04-26T06:56:19.248Z,18.72
2019-04-26T06:57:19.178Z,18.50
2019-04-26T06:58:19.168Z,18.18
2019-04-26T06:59:19.156Z,17.96
2019-04-26T07:00:19.145Z,17.88
2019-04-26T07:01:19.145Z,17.81
2019-04-26T07:02:19.376Z,17.84
2019-04-26T07:03:19.114Z,17.88
2019-04-26T07:04:19.106Z,17.86
2019-04-26T07:05:19.095Z,17.99
2019-04-26T07:06:19.081Z,18.14
2019-04-26T07:07:19.072Z,18.30
2019-04-26T07:08:19.110Z,18.50
2019-04-26T07:09:19.053Z,18.57
2019-04-26T07:10:19.045Z,18.79
2019-04-26T07:11:19.028Z,18.84
2019-04-26T07:12:19.020Z,18.84
2019-04-26T07:13:19.006Z,18.74
2019-04-26T07:14:19.046Z,18.72
2019-04-26T07:15:28.354Z,18.82
2019-04-26T07:16:43.795Z,18.87
2019-04-26T07:17:43.783Z,19.04
2019-04-26T07:18:43.767Z,19.14
2019-04-26T07:19:43.912Z,19.27
2019-04-26T07:20:43.752Z,19.28
2019-04-26T07:21:43.738Z,19.30
2019-04-26T07:22:43.724Z,19.27
2019-04-26T07:23:43.721Z,19.10
2019-04-26T07:24:43.706Z,19.05
2019-04-26T07:25:43.745Z,18.98
2019-04-26T07:26:43.684Z,19.02
2019-04-26T07:27:43.676Z,18.92
2019-04-26T07:28:43.660Z,18.99
2019-04-26T07:29:43.653Z,19.01
2019-04-26T07:30:43.642Z,19.19
2019-04-26T07:31:43.689Z,19.12
2019-04-26T07:32:43.624Z,19.34
2019-04-26T07:33:43.613Z,19.41
2019-04-26T07:34:43.604Z,19.41
2019-04-26T07:35:43.597Z,19.47
2019-04-26T07:36:43.586Z,19.59
2019-04-26T07:37:43.819Z,19.62
2019-04-26T07:38:43.560Z,19.53
2019-04-26T07:39:43.551Z,19.54
2019-04-26T07:40:43.545Z,19.56
2019-04-26T07:41:43.530Z,19.62
2019-04-26T07:42:43.517Z,19.67
2019-04-26T07:43:43.556Z,19.75
2019-04-26T07:44:43.499Z,19.79
2019-04-26T07:45:43.486Z,19.68
2019-04-26T07:46:43.477Z,19.79
2019-04-26T07:47:43.463Z,19.72
2019-04-26T07:48:43.456Z,19.90
2019-04-26T07:49:43.493Z,19.84
2019-04-26T07:50:43.435Z,19.93
2019-04-26T07:51:43.427Z,19.86
2019-04-26T07:52:44.088Z,19.88
2019-04-26T07:53:43.403Z,19.97
2019-04-26T07:54:43.392Z,20.05
2019-04-26T07:55:43.531Z,20.00
2019-04-26T07:56:43.379Z,20.06
2019-04-26T07:57:43.361Z,20.24
2019-04-26T07:58:43.353Z,20.09
2019-04-26T07:59:43.342Z,20.18
2019-04-26T08:00:44.953Z,20.15
2019-04-26T08:01:43.369Z,19.97
2019-04-26T08:02:43.310Z,19.90
2019-04-26T08:03:43.299Z,20.00
2019-04-26T08:04:43.286Z,19.97
2019-04-26T08:05:43.277Z,19.91
2019-04-26T08:06:43.266Z,19.54
2019-04-26T08:07:43.309Z,19.46
2019-04-26T08:08:43.246Z,19.64
2019-04-26T08:09:46.049Z,19.67
2019-04-26T08:10:43.225Z,19.47
2019-04-26T08:11:43.219Z,19.39
2019-04-26T08:12:43.256Z,19.37
2019-04-26T08:13:43.190Z,19.54
2019-04-26T08:14:43.188Z,20.24
2019-04-26T08:15:43.173Z,20.82
2019-04-26T08:16:43.166Z,21.38
2019-04-26T08:17:43.553Z,21.75
2019-04-26T08:18:43.144Z,21.71
2019-04-26T08:19:43.130Z,21.10
2019-04-26T08:20:43.122Z,20.53
2019-04-26T08:21:47.883Z,20.21
2019-04-26T08:22:43.100Z,19.98
2019-04-26T08:24:43.136Z,20.08
2019-04-26T08:25:43.070Z,20.33
2019-04-26T08:26:43.059Z,20.52
2019-04-26T08:27:43.048Z,20.48
2019-04-26T08:28:43.040Z,20.46
2019-04-26T08:29:43.030Z,20.45
2019-04-26T08:30:44.935Z,20.50
2019-04-26T08:31:43.006Z,20.38
2019-04-26T08:32:43.004Z,20.30
2019-04-26T08:33:48.639Z,19.97
2019-04-26T08:35:14.793Z,20.06
2019-04-26T08:36:32.639Z,20.12
2019-04-26T08:37:36.453Z,20.15
2019-04-26T08:38:32.618Z,20.08
2019-04-26T08:39:44.811Z,20.00
2019-04-26T08:40:33.698Z,20.00
2019-04-26T08:41:35.257Z,20.09
2019-04-26T08:42:32.576Z,20.23
2019-04-26T08:43:32.571Z,20.39
2019-04-26T08:44:34.486Z,20.20
2019-04-26T08:45:32.544Z,20.09
2019-04-26T08:46:36.282Z,20.27
2019-04-26T08:47:32.623Z,20.34
2019-04-26T08:48:32.522Z,20.43
2019-04-26T08:49:35.037Z,20.16
2019-04-26T08:50:57.306Z,20.12
2019-04-26T08:51:57.529Z,20.16
2019-04-26T08:52:57.965Z,20.13
2019-04-26T08:53:57.273Z,20.09
2019-04-26T08:54:57.263Z,20.16
2019-04-26T08:55:57.253Z,19.93
2019-04-26T08:56:57.242Z,19.53
2019-04-26T08:57:57.234Z,19.38
2019-04-26T08:58:57.379Z,19.56
2019-04-26T08:59:57.219Z,19.62
2019-04-26T09:00:57.203Z,19.30
2019-04-26T09:01:57.192Z,19.05
2019-04-26T09:02:57.181Z,18.97
2019-04-26T09:03:57.229Z,19.14
2019-04-26T09:04:57.160Z,19.14
2019-04-26T09:05:57.150Z,19.30
2019-04-26T09:06:57.144Z,19.71
2019-04-26T09:07:57.550Z,20.18
2019-04-26T09:08:57.118Z,20.46
2019-04-26T09:10:57.149Z,21.23
2019-04-26T09:11:59.917Z,21.30
2019-04-26T09:12:57.076Z,21.24
2019-04-26T09:13:57.066Z,21.10
2019-04-26T09:14:57.077Z,20.97
2019-04-26T09:15:57.077Z,20.83
2019-04-26T09:16:57.188Z,20.76
2019-04-26T09:17:57.026Z,20.64
2019-04-26T09:18:59.544Z,20.50
2019-04-26T09:19:58.285Z,20.34
2019-04-26T09:20:56.995Z,20.18
2019-04-26T09:22:00.195Z,20.10
2019-04-26T09:23:21.887Z,19.97
2019-04-26T09:24:25.105Z,20.08
2019-04-26T09:25:22.759Z,20.10
2019-04-26T09:26:21.923Z,20.08
2019-04-26T09:27:22.520Z,20.38
2019-04-26T09:28:21.938Z,20.48
2019-04-26T09:29:21.826Z,20.64
2019-04-26T09:30:33.351Z,20.45
2019-04-26T09:31:50.488Z,20.34
2019-04-26T09:32:47.709Z,20.30
2019-04-26T09:33:46.753Z,20.20
2019-04-26T09:34:46.599Z,20.12
2019-04-26T09:35:46.580Z,20.02
2019-04-26T09:36:46.574Z,19.87
2019-04-26T09:37:46.554Z,19.86
2019-04-26T09:38:46.547Z,19.83
2019-04-26T09:39:46.635Z,19.79
2019-04-26T09:40:46.535Z,19.71
2019-04-26T09:41:46.513Z,19.67
2019-04-26T09:42:46.506Z,19.54
2019-04-26T09:43:46.502Z,19.41
2019-04-26T09:44:46.583Z,19.32
2019-04-26T09:45:48.072Z,19.35
2019-04-26T09:46:48.401Z,19.27
2019-04-26T09:47:46.450Z,19.24
2019-04-26T09:48:46.442Z,19.30
2019-04-26T09:49:46.584Z,19.27
2019-04-26T09:50:46.421Z,19.23
2019-04-26T09:51:46.409Z,19.20
2019-04-26T09:52:46.405Z,19.20
2019-04-26T09:53:46.393Z,19.23
2019-04-26T09:54:46.376Z,19.14
2019-04-26T09:55:46.484Z,18.99
2019-04-26T09:56:46.359Z,18.73
2019-04-26T09:57:46.348Z,18.65
2019-04-26T09:58:46.334Z,18.58
2019-04-26T09:59:46.327Z,18.39
2019-04-26T10:00:48.465Z,18.30
2019-04-26T10:01:46.354Z,18.30
2019-04-26T10:02:46.289Z,18.34
2019-04-26T10:03:46.282Z,18.27
2019-04-26T10:04:46.272Z,18.21
2019-04-26T10:05:46.263Z,18.02
2019-04-26T10:06:46.250Z,17.84
2019-04-26T10:07:46.389Z,17.62
2019-04-26T10:08:47.093Z,17.61
2019-04-26T10:09:46.217Z,17.55
2019-04-26T10:10:46.211Z,17.36
2019-04-26T10:11:46.196Z,17.25
2019-04-26T10:12:46.185Z,17.11
2019-04-26T10:13:46.274Z,16.96
2019-04-26T10:14:46.516Z,16.74
2019-04-26T10:15:46.164Z,16.67
2019-04-26T10:16:46.139Z,16.57
2019-04-26T10:17:46.463Z,16.55
2019-04-26T10:18:46.121Z,16.43
2019-04-26T10:19:46.258Z,16.36
2019-04-26T10:20:46.095Z,16.21
2019-04-26T10:21:46.086Z,15.94
2019-04-26T10:22:46.075Z,15.74
2019-04-26T10:23:46.065Z,15.44
2019-04-26T10:24:46.056Z,15.35
2019-04-26T10:25:47.420Z,15.22
2019-04-26T10:26:46.033Z,15.16
2019-04-26T10:27:46.018Z,15.18
2019-04-26T10:28:46.786Z,15.18
2019-04-26T10:29:46.001Z,15.10
2019-04-26T10:30:45.988Z,15.18
2019-04-26T10:31:47.574Z,15.41
2019-04-26T10:32:45.965Z,15.86
2019-04-26T10:33:45.959Z,16.15
2019-04-26T10:34:47.255Z,16.15
2019-04-26T10:35:45.935Z,15.99
2019-04-26T10:36:45.926Z,15.75
2019-04-26T10:37:48.052Z,15.40
2019-04-26T10:38:45.902Z,15.30
2019-04-26T10:39:45.893Z,15.35
2019-04-26T10:40:45.886Z,15.37
2019-04-26T10:41:45.870Z,15.42
2019-04-26T10:42:45.864Z,15.74
2019-04-26T10:43:46.001Z,15.96
2019-04-26T10:44:45.839Z,15.92
2019-04-26T10:45:53.528Z,15.72
2019-04-26T10:47:10.635Z,15.66
2019-04-26T10:48:13.932Z,15.37
2019-04-26T10:49:12.026Z,15.26
2019-04-26T10:50:10.601Z,15.16
2019-04-26T10:51:10.586Z,15.00
2019-04-26T10:52:11.992Z,14.93
2019-04-26T10:53:10.568Z,15.25
2019-04-26T10:54:10.559Z,15.81
2019-04-26T10:55:12.245Z,16.66
2019-04-26T10:56:10.536Z,17.30
2019-04-26T10:57:10.525Z,17.65
2019-04-26T10:58:10.527Z,17.84
2019-04-26T10:59:11.004Z,17.96
2019-04-26T11:00:10.490Z,18.17
2019-04-26T11:02:10.573Z,18.61
2019-04-26T11:03:10.460Z,18.76
2019-04-26T11:04:10.454Z,18.91
2019-04-26T11:05:11.666Z,19.01
2019-04-26T11:06:35.246Z,19.07
2019-04-26T11:07:35.290Z,19.16
2019-04-26T11:08:35.223Z,19.14
2019-04-26T11:09:35.210Z,19.14
2019-04-26T11:10:47.663Z,18.70
2019-04-26T11:11:36.286Z,17.68
2019-04-26T11:12:35.338Z,16.70
2019-04-26T11:13:35.170Z,15.64
2019-04-26T11:14:35.161Z,14.87
2019-04-26T11:15:35.143Z,14.35
2019-04-26T11:16:37.260Z,14.06
2019-04-26T11:17:35.127Z,13.87
2019-04-26T11:18:35.217Z,13.87
2019-04-26T11:19:35.530Z,13.87
2019-04-26T11:20:35.095Z,13.68
2019-04-26T11:21:35.081Z,13.62
2019-04-26T11:22:37.639Z,13.73
2019-04-26T11:23:35.058Z,13.82
2019-04-26T11:24:35.149Z,13.91
2019-04-26T11:25:35.039Z,13.93
2019-04-26T11:26:36.248Z,13.95
2019-04-26T11:27:35.017Z,14.03
2019-04-26T11:28:35.007Z,14.20
2019-04-26T11:29:34.994Z,14.29
2019-04-26T11:30:35.132Z,14.44
2019-04-26T11:31:34.978Z,15.41
2019-04-26T11:32:36.780Z,16.09
2019-04-26T11:33:44.429Z,16.67
2019-04-26T11:34:36.040Z,16.84
2019-04-26T11:35:34.985Z,16.88
2019-04-26T11:36:37.633Z,16.54
2019-04-26T11:37:59.788Z,15.99
2019-04-26T11:39:01.397Z,15.54
2019-04-26T11:39:59.700Z,15.12
2019-04-26T11:41:06.191Z,14.80
2019-04-26T11:42:00.825Z,14.62
2019-04-26T11:42:59.669Z,14.47
2019-04-26T11:43:59.657Z,14.34
2019-04-26T11:45:06.021Z,14.27
2019-04-26T11:46:29.108Z,14.13
2019-04-26T11:47:24.497Z,14.12
2019-04-26T11:48:25.502Z,14.03
2019-04-26T11:49:24.424Z,14.01
2019-04-26T11:50:24.416Z,14.03
2019-04-26T11:51:27.560Z,14.03
2019-04-26T11:52:24.392Z,14.25
2019-04-26T11:53:24.432Z,14.37
2019-04-26T11:54:24.371Z,14.52
2019-04-26T11:55:25.414Z,14.80
2019-04-26T11:56:24.359Z,14.89
2019-04-26T11:57:24.342Z,15.02
2019-04-26T11:58:24.494Z,15.11
2019-04-26T11:59:27.035Z,15.02
2019-04-26T12:00:49.126Z,15.04
2019-04-26T12:01:49.114Z,15.12
2019-04-26T12:02:50.725Z,15.38
2019-04-26T12:03:51.542Z,15.61
2019-04-26T12:04:49.721Z,15.68
2019-04-26T12:05:49.071Z,15.70
2019-04-26T12:06:49.061Z,15.74
2019-04-26T12:07:49.057Z,15.82
2019-04-26T12:08:49.044Z,15.88
2019-04-26T12:09:49.080Z,16.00
2019-04-26T12:10:49.018Z,15.97
2019-04-26T12:12:03.521Z,15.96
2019-04-26T12:13:13.837Z,16.07
2019-04-26T12:14:20.099Z,16.11
2019-04-26T12:15:43.228Z,16.18
2019-04-26T12:16:48.022Z,16.25
2019-04-26T12:18:05.521Z,16.24
2019-04-26T12:19:03.635Z,16.24
2019-04-26T12:20:03.633Z,16.25
2019-04-26T12:21:03.668Z,16.25
2019-04-26T12:22:04.295Z,16.25
2019-04-26T12:23:03.603Z,16.29
2019-04-26T12:24:03.586Z,16.30
2019-04-26T12:25:07.210Z,16.22
2019-04-26T12:26:03.563Z,16.24
2019-04-26T12:27:03.653Z,16.30
2019-04-26T12:28:06.167Z,16.24
2019-04-26T12:29:03.525Z,16.24
2019-04-26T12:30:03.515Z,16.11
2019-04-26T12:31:03.505Z,16.16
2019-04-26T12:32:03.495Z,16.04
2019-04-26T12:33:03.637Z,16.06
2019-04-26T12:34:03.471Z,16.09
2019-04-26T12:35:03.464Z,16.11
2019-04-26T12:36:03.451Z,16.12
2019-04-26T12:37:03.450Z,16.12
2019-04-26T12:38:03.431Z,16.07
2019-04-26T12:39:03.516Z,16.14
2019-04-26T12:40:03.405Z,16.11
2019-04-26T12:41:03.394Z,16.16
2019-04-26T12:42:03.385Z,16.00
2019-04-26T12:43:03.374Z,16.11
2019-04-26T12:44:03.464Z,16.58
2019-04-26T12:45:03.451Z,16.90
2019-04-26T12:46:03.340Z,17.20
2019-04-26T12:47:05.097Z,17.22
2019-04-26T12:48:03.319Z,17.14
2019-04-26T12:49:03.308Z,17.07
2019-04-26T12:50:03.297Z,17.10
2019-04-26T12:51:03.438Z,17.00
2019-04-26T12:52:03.275Z,17.11
2019-04-26T12:53:03.263Z,17.08
2019-04-26T12:54:03.649Z,17.29
2019-04-26T12:55:03.242Z,17.41
2019-04-26T12:56:03.234Z,17.62
2019-04-26T12:57:05.846Z,17.77
2019-04-26T12:58:03.212Z,17.86
2019-04-26T12:59:03.204Z,17.87
2019-04-26T13:00:03.713Z,17.87
2019-04-26T13:01:03.178Z,17.59
2019-04-26T13:02:05.870Z,17.30
2019-04-26T13:03:03.206Z,17.13
2019-04-26T13:04:03.649Z,16.92
2019-04-26T13:05:03.134Z,16.79
2019-04-26T13:06:03.179Z,16.51
2019-04-26T13:07:07.052Z,16.72
2019-04-26T13:08:03.099Z,17.06